sensor_id;sensor_type;location;lat;lon;timestamp;P1;durP1;ratioP1;P2;durP2;ratioP2
19492;SDS011;9887;54.366;10.958;2022-11-11T00:02:00;10.55;;;2.00;;
19492;SDS011;9887;54.366;10.958;2022-11-11T00:04:47;8.02;;;1.70;;
19492;SDS011;9887;54.366;10.958;2022-11-11T00:07:35;10.70;;;2.40;;
19492;SDS011;9887;54.366;10.958;2022-11-11T00:10:21;10.00;;;2.70;;
19492;SDS011;9887;54.366;10.958;2022-11-11T00:13:08;10.18;;;2.53;;
19492;SDS011;9887;54.366;10.958;2022-11-11T00:15:54;4.57;;;1.75;;
19492;SDS011;9887;54.366;10.958;2022-11-11T00:18:41;12.30;;;2.50;;
19492;SDS011;9887;54.366;10.958;2022-11-11T00:21:46;9.38;;;2.42;;
19492;SDS011;9887;54.366;10.958;2022-11-11T00:24:51;7.15;;;2.28;;
19492;SDS011;9887;54.366;10.958;2022-11-11T00:27:53;12.30;;;2.65;;
19492;SDS011;9887;54.366;10.958;2022-11-11T00:30:40;8.20;;;2.22;;
19492;SDS011;9887;54.366;10.958;2022-11-11T00:33:26;11.52;;;2.47;;
19492;SDS011;9887;54.366;10.958;2022-11-11T00:36:13;7.53;;;2.65;;
19492;SDS011;9887;54.366;10.958;2022-11-11T00:38:58;14.90;;;2.97;;
19492;SDS011;9887;54.366;10.958;2022-11-11T00:41:46;8.43;;;2.40;;
19492;SDS011;9887;54.366;10.958;2022-11-11T00:44:32;5.78;;;2.45;;
19492;SDS011;9887;54.366;10.958;2022-11-11T00:47:19;6.65;;;2.15;;
19492;SDS011;9887;54.366;10.958;2022-11-11T00:50:24;10.77;;;2.63;;
19492;SDS011;9887;54.366;10.958;2022-11-11T00:53:29;10.48;;;2.65;;
19492;SDS011;9887;54.366;10.958;2022-11-11T00:56:19;10.55;;;2.95;;
19492;SDS011;9887;54.366;10.958;2022-11-11T00:59:07;12.65;;;2.85;;
19492;SDS011;9887;54.366;10.958;2022-11-11T01:01:54;9.10;;;2.75;;
19492;SDS011;9887;54.366;10.958;2022-11-11T01:04:41;12.93;;;3.22;;
19492;SDS011;9887;54.366;10.958;2022-11-11T01:07:28;6.40;;;2.47;;
19492;SDS011;9887;54.366;10.958;2022-11-11T01:10:14;7.43;;;2.63;;
19492;SDS011;9887;54.366;10.958;2022-11-11T01:13:21;13.68;;;2.95;;
19492;SDS011;9887;54.366;10.958;2022-11-11T01:16:11;5.20;;;2.95;;
19492;SDS011;9887;54.366;10.958;2022-11-11T01:18:59;8.57;;;2.80;;
19492;SDS011;9887;54.366;10.958;2022-11-11T01:21:46;10.77;;;2.95;;
19492;SDS011;9887;54.366;10.958;2022-11-11T01:24:33;11.43;;;3.55;;
19492;SDS011;9887;54.366;10.958;2022-11-11T01:27:19;16.20;;;3.58;;
19492;SDS011;9887;54.366;10.958;2022-11-11T01:30:06;10.15;;;3.05;;
19492;SDS011;9887;54.366;10.958;2022-11-11T01:32:54;8.30;;;2.97;;
19492;SDS011;9887;54.366;10.958;2022-11-11T01:35:40;8.35;;;3.20;;
19492;SDS011;9887;54.366;10.958;2022-11-11T01:38:27;8.60;;;3.17;;
19492;SDS011;9887;54.366;10.958;2022-11-11T01:41:14;8.05;;;2.88;;
19492;SDS011;9887;54.366;10.958;2022-11-11T01:47:32;9.48;;;2.65;;
19492;SDS011;9887;54.366;10.958;2022-11-11T01:50:55;9.15;;;2.90;;
19492;SDS011;9887;54.366;10.958;2022-11-11T01:53:43;9.55;;;3.10;;
19492;SDS011;9887;54.366;10.958;2022-11-11T01:56:30;11.40;;;3.47;;
19492;SDS011;9887;54.366;10.958;2022-11-11T01:59:18;14.20;;;3.22;;
19492;SDS011;9887;54.366;10.958;2022-11-11T02:02:07;7.78;;;3.03;;
19492;SDS011;9887;54.366;10.958;2022-11-11T02:04:57;9.63;;;3.10;;
19492;SDS011;9887;54.366;10.958;2022-11-11T02:08:06;7.18;;;3.10;;
19492;SDS011;9887;54.366;10.958;2022-11-11T02:10:55;8.18;;;3.05;;
19492;SDS011;9887;54.366;10.958;2022-11-11T02:13:41;11.27;;;3.58;;
19492;SDS011;9887;54.366;10.958;2022-11-11T02:16:46;9.90;;;3.45;;
19492;SDS011;9887;54.366;10.958;2022-11-11T02:19:34;6.57;;;3.05;;
19492;SDS011;9887;54.366;10.958;2022-11-11T02:22:31;10.43;;;3.25;;
19492;SDS011;9887;54.366;10.958;2022-11-11T02:25:25;12.00;;;3.20;;
19492;SDS011;9887;54.366;10.958;2022-11-11T02:28:15;12.65;;;3.30;;
19492;SDS011;9887;54.366;10.958;2022-11-11T02:31:04;10.52;;;3.05;;
19492;SDS011;9887;54.366;10.958;2022-11-11T02:33:51;9.40;;;2.85;;
19492;SDS011;9887;54.366;10.958;2022-11-11T02:36:37;8.95;;;3.05;;
19492;SDS011;9887;54.366;10.958;2022-11-11T02:39:25;6.15;;;3.45;;
19492;SDS011;9887;54.366;10.958;2022-11-11T02:42:34;9.82;;;3.20;;
19492;SDS011;9887;54.366;10.958;2022-11-11T02:45:20;9.45;;;3.55;;
19492;SDS011;9887;54.366;10.958;2022-11-11T02:48:07;9.25;;;3.17;;
19492;SDS011;9887;54.366;10.958;2022-11-11T02:50:53;8.23;;;2.83;;
19492;SDS011;9887;54.366;10.958;2022-11-11T02:53:40;13.70;;;3.72;;
19492;SDS011;9887;54.366;10.958;2022-11-11T02:56:27;7.80;;;2.90;;
19492;SDS011;9887;54.366;10.958;2022-11-11T02:59:32;7.47;;;3.20;;
19492;SDS011;9887;54.366;10.958;2022-11-11T03:02:19;11.63;;;3.17;;
19492;SDS011;9887;54.366;10.958;2022-11-11T03:05:06;9.35;;;3.60;;
19492;SDS011;9887;54.366;10.958;2022-11-11T03:07:53;8.35;;;3.90;;
19492;SDS011;9887;54.366;10.958;2022-11-11T03:10:40;12.05;;;3.00;;
19492;SDS011;9887;54.366;10.958;2022-11-11T03:13:26;10.90;;;3.88;;
19492;SDS011;9887;54.366;10.958;2022-11-11T03:16:15;8.50;;;3.60;;
19492;SDS011;9887;54.366;10.958;2022-11-11T03:19:33;11.60;;;2.63;;
19492;SDS011;9887;54.366;10.958;2022-11-11T03:22:18;11.82;;;3.33;;
19492;SDS011;9887;54.366;10.958;2022-11-11T03:25:24;12.43;;;3.50;;
19492;SDS011;9887;54.366;10.958;2022-11-11T03:28:23;15.15;;;3.53;;
19492;SDS011;9887;54.366;10.958;2022-11-11T03:31:09;7.25;;;2.75;;
19492;SDS011;9887;54.366;10.958;2022-11-11T03:33:57;10.25;;;2.42;;
19492;SDS011;9887;54.366;10.958;2022-11-11T03:37:01;9.05;;;3.92;;
19492;SDS011;9887;54.366;10.958;2022-11-11T03:40:07;11.75;;;3.20;;
19492;SDS011;9887;54.366;10.958;2022-11-11T03:42:54;11.75;;;3.35;;
19492;SDS011;9887;54.366;10.958;2022-11-11T03:45:48;11.32;;;3.28;;
19492;SDS011;9887;54.366;10.958;2022-11-11T03:48:35;11.77;;;4.47;;
19492;SDS011;9887;54.366;10.958;2022-11-11T03:51:22;15.80;;;3.90;;
19492;SDS011;9887;54.366;10.958;2022-11-11T03:54:09;8.20;;;3.17;;
19492;SDS011;9887;54.366;10.958;2022-11-11T03:56:55;9.88;;;3.20;;
19492;SDS011;9887;54.366;10.958;2022-11-11T04:00:02;10.88;;;3.20;;
19492;SDS011;9887;54.366;10.958;2022-11-11T04:03:01;12.18;;;3.47;;
19492;SDS011;9887;54.366;10.958;2022-11-11T04:06:07;12.23;;;3.40;;
19492;SDS011;9887;54.366;10.958;2022-11-11T04:09:13;13.40;;;3.80;;
19492;SDS011;9887;54.366;10.958;2022-11-11T04:12:18;15.55;;;3.70;;
19492;SDS011;9887;54.366;10.958;2022-11-11T04:15:05;12.10;;;4.03;;
19492;SDS011;9887;54.366;10.958;2022-11-11T04:18:10;12.05;;;3.60;;
19492;SDS011;9887;54.366;10.958;2022-11-11T04:20:56;7.43;;;3.40;;
19492;SDS011;9887;54.366;10.958;2022-11-11T04:24:00;11.95;;;3.80;;
19492;SDS011;9887;54.366;10.958;2022-11-11T04:26:48;13.10;;;4.05;;
19492;SDS011;9887;54.366;10.958;2022-11-11T04:29:34;6.75;;;3.85;;
19492;SDS011;9887;54.366;10.958;2022-11-11T04:32:21;9.55;;;3.97;;
19492;SDS011;9887;54.366;10.958;2022-11-11T04:35:27;13.38;;;4.18;;
19492;SDS011;9887;54.366;10.958;2022-11-11T04:38:13;12.02;;;4.10;;
19492;SDS011;9887;54.366;10.958;2022-11-11T04:41:17;18.02;;;4.40;;
19492;SDS011;9887;54.366;10.958;2022-11-11T04:44:05;9.45;;;4.13;;
19492;SDS011;9887;54.366;10.958;2022-11-11T04:47:06;13.13;;;4.20;;
19492;SDS011;9887;54.366;10.958;2022-11-11T04:49:52;10.68;;;3.67;;
19492;SDS011;9887;54.366;10.958;2022-11-11T04:52:39;12.85;;;4.47;;
19492;SDS011;9887;54.366;10.958;2022-11-11T04:55:25;12.70;;;3.78;;
19492;SDS011;9887;54.366;10.958;2022-11-11T04:58:31;13.50;;;4.28;;
19492;SDS011;9887;54.366;10.958;2022-11-11T05:01:20;14.00;;;4.10;;
19492;SDS011;9887;54.366;10.958;2022-11-11T05:04:21;12.35;;;4.68;;
19492;SDS011;9887;54.366;10.958;2022-11-11T05:07:07;13.88;;;3.70;;
19492;SDS011;9887;54.366;10.958;2022-11-11T05:10:11;11.30;;;4.45;;
19492;SDS011;9887;54.366;10.958;2022-11-11T05:12:58;10.25;;;4.10;;
19492;SDS011;9887;54.366;10.958;2022-11-11T05:16:04;19.58;;;5.00;;
19492;SDS011;9887;54.366;10.958;2022-11-11T05:19:10;11.13;;;4.50;;
19492;SDS011;9887;54.366;10.958;2022-11-11T05:22:15;12.32;;;4.15;;
19492;SDS011;9887;54.366;10.958;2022-11-11T05:25:03;11.57;;;3.80;;
19492;SDS011;9887;54.366;10.958;2022-11-11T05:28:09;9.27;;;3.72;;
19492;SDS011;9887;54.366;10.958;2022-11-11T05:30:55;12.48;;;3.88;;
19492;SDS011;9887;54.366;10.958;2022-11-11T05:33:42;16.58;;;4.07;;
19492;SDS011;9887;54.366;10.958;2022-11-11T05:36:29;9.90;;;4.13;;
19492;SDS011;9887;54.366;10.958;2022-11-11T05:39:16;12.63;;;4.18;;
19492;SDS011;9887;54.366;10.958;2022-11-11T05:42:02;13.25;;;3.95;;
19492;SDS011;9887;54.366;10.958;2022-11-11T05:44:49;17.20;;;3.85;;
19492;SDS011;9887;54.366;10.958;2022-11-11T05:47:36;18.88;;;4.38;;
19492;SDS011;9887;54.366;10.958;2022-11-11T05:50:23;12.02;;;3.55;;
19492;SDS011;9887;54.366;10.958;2022-11-11T05:53:11;13.93;;;4.15;;
19492;SDS011;9887;54.366;10.958;2022-11-11T05:55:57;12.80;;;3.97;;
19492;SDS011;9887;54.366;10.958;2022-11-11T05:58:43;12.25;;;3.90;;
19492;SDS011;9887;54.366;10.958;2022-11-11T06:01:34;11.00;;;3.90;;
19492;SDS011;9887;54.366;10.958;2022-11-11T06:04:21;11.88;;;3.60;;
19492;SDS011;9887;54.366;10.958;2022-11-11T06:07:08;12.40;;;4.15;;
19492;SDS011;9887;54.366;10.958;2022-11-11T06:09:55;14.00;;;4.82;;
19492;SDS011;9887;54.366;10.958;2022-11-11T06:13:02;9.15;;;4.50;;
19492;SDS011;9887;54.366;10.958;2022-11-11T06:15:54;11.60;;;3.67;;
19492;SDS011;9887;54.366;10.958;2022-11-11T06:18:41;11.70;;;3.90;;
19492;SDS011;9887;54.366;10.958;2022-11-11T06:21:27;18.05;;;4.53;;
19492;SDS011;9887;54.366;10.958;2022-11-11T06:24:14;11.63;;;4.35;;
19492;SDS011;9887;54.366;10.958;2022-11-11T06:27:02;15.63;;;4.53;;
19492;SDS011;9887;54.366;10.958;2022-11-11T06:29:49;11.60;;;4.22;;
19492;SDS011;9887;54.366;10.958;2022-11-11T06:32:35;18.45;;;4.90;;
19492;SDS011;9887;54.366;10.958;2022-11-11T06:35:22;11.50;;;4.57;;
19492;SDS011;9887;54.366;10.958;2022-11-11T06:38:08;12.00;;;5.47;;
19492;SDS011;9887;54.366;10.958;2022-11-11T06:40:55;20.50;;;4.75;;
19492;SDS011;9887;54.366;10.958;2022-11-11T06:43:43;23.00;;;5.80;;
19492;SDS011;9887;54.366;10.958;2022-11-11T06:46:29;12.38;;;5.30;;
19492;SDS011;9887;54.366;10.958;2022-11-11T06:49:16;15.73;;;5.78;;
19492;SDS011;9887;54.366;10.958;2022-11-11T06:52:02;14.88;;;5.47;;
19492;SDS011;9887;54.366;10.958;2022-11-11T06:54:49;14.25;;;5.40;;
19492;SDS011;9887;54.366;10.958;2022-11-11T06:57:35;19.23;;;5.07;;
19492;SDS011;9887;54.366;10.958;2022-11-11T07:00:23;12.27;;;5.18;;
19492;SDS011;9887;54.366;10.958;2022-11-11T07:03:10;20.83;;;5.45;;
19492;SDS011;9887;54.366;10.958;2022-11-11T07:05:59;20.50;;;5.90;;
19492;SDS011;9887;54.366;10.958;2022-11-11T07:08:46;13.43;;;5.68;;
19492;SDS011;9887;54.366;10.958;2022-11-11T07:11:32;21.30;;;6.20;;
19492;SDS011;9887;54.366;10.958;2022-11-11T07:14:19;20.67;;;8.38;;
19492;SDS011;9887;54.366;10.958;2022-11-11T07:17:07;17.25;;;5.63;;
19492;SDS011;9887;54.366;10.958;2022-11-11T07:19:53;20.10;;;5.78;;
19492;SDS011;9887;54.366;10.958;2022-11-11T07:22:40;17.60;;;5.75;;
19492;SDS011;9887;54.366;10.958;2022-11-11T07:25:26;16.60;;;5.70;;
19492;SDS011;9887;54.366;10.958;2022-11-11T07:28:13;14.57;;;5.80;;
19492;SDS011;9887;54.366;10.958;2022-11-11T07:30:59;12.65;;;5.78;;
19492;SDS011;9887;54.366;10.958;2022-11-11T07:33:47;16.85;;;6.15;;
19492;SDS011;9887;54.366;10.958;2022-11-11T07:36:34;12.88;;;5.43;;
19492;SDS011;9887;54.366;10.958;2022-11-11T07:39:20;17.58;;;6.38;;
19492;SDS011;9887;54.366;10.958;2022-11-11T07:42:07;16.23;;;5.72;;
19492;SDS011;9887;54.366;10.958;2022-11-11T07:45:13;15.77;;;6.47;;
19492;SDS011;9887;54.366;10.958;2022-11-11T07:48:00;14.98;;;6.05;;
19492;SDS011;9887;54.366;10.958;2022-11-11T07:50:48;20.17;;;6.75;;
19492;SDS011;9887;54.366;10.958;2022-11-11T07:53:36;13.25;;;6.07;;
19492;SDS011;9887;54.366;10.958;2022-11-11T07:56:23;18.40;;;6.75;;
19492;SDS011;9887;54.366;10.958;2022-11-11T07:59:09;15.20;;;6.22;;
19492;SDS011;9887;54.366;10.958;2022-11-11T08:01:56;18.58;;;6.65;;
19492;SDS011;9887;54.366;10.958;2022-11-11T08:04:43;13.23;;;6.65;;
19492;SDS011;9887;54.366;10.958;2022-11-11T08:07:30;18.75;;;6.57;;
19492;SDS011;9887;54.366;10.958;2022-11-11T08:10:19;16.58;;;6.57;;
19492;SDS011;9887;54.366;10.958;2022-11-11T08:13:05;17.13;;;6.30;;
19492;SDS011;9887;54.366;10.958;2022-11-11T08:16:12;15.27;;;6.88;;
19492;SDS011;9887;54.366;10.958;2022-11-11T08:18:59;11.98;;;6.13;;
19492;SDS011;9887;54.366;10.958;2022-11-11T08:21:46;21.10;;;6.70;;
19492;SDS011;9887;54.366;10.958;2022-11-11T08:24:34;22.50;;;7.40;;
19492;SDS011;9887;54.366;10.958;2022-11-11T08:27:40;14.20;;;6.18;;
19492;SDS011;9887;54.366;10.958;2022-11-11T08:30:27;18.00;;;6.53;;
19492;SDS011;9887;54.366;10.958;2022-11-11T08:33:13;14.02;;;6.50;;
19492;SDS011;9887;54.366;10.958;2022-11-11T08:36:17;12.13;;;6.28;;
19492;SDS011;9887;54.366;10.958;2022-11-11T08:39:05;16.65;;;6.97;;
19492;SDS011;9887;54.366;10.958;2022-11-11T08:41:53;16.35;;;6.57;;
19492;SDS011;9887;54.366;10.958;2022-11-11T08:44:40;26.02;;;9.27;;
19492;SDS011;9887;54.366;10.958;2022-11-11T08:47:26;17.60;;;6.57;;
19492;SDS011;9887;54.366;10.958;2022-11-11T08:50:12;16.67;;;6.53;;
19492;SDS011;9887;54.366;10.958;2022-11-11T08:52:59;14.55;;;6.75;;
19492;SDS011;9887;54.366;10.958;2022-11-11T08:55:46;12.95;;;7.30;;
19492;SDS011;9887;54.366;10.958;2022-11-11T08:58:34;14.77;;;6.40;;
19492;SDS011;9887;54.366;10.958;2022-11-11T09:01:20;12.50;;;6.95;;
19492;SDS011;9887;54.366;10.958;2022-11-11T09:04:07;16.92;;;7.68;;
19492;SDS011;9887;54.366;10.958;2022-11-11T09:07:13;15.52;;;7.45;;
19492;SDS011;9887;54.366;10.958;2022-11-11T09:10:00;11.52;;;6.65;;
19492;SDS011;9887;54.366;10.958;2022-11-11T09:12:47;19.83;;;6.88;;
19492;SDS011;9887;54.366;10.958;2022-11-11T09:15:35;17.05;;;7.35;;
19492;SDS011;9887;54.366;10.958;2022-11-11T09:18:21;14.13;;;6.90;;
19492;SDS011;9887;54.366;10.958;2022-11-11T09:21:07;16.63;;;7.38;;
19492;SDS011;9887;54.366;10.958;2022-11-11T09:23:54;16.17;;;7.40;;
19492;SDS011;9887;54.366;10.958;2022-11-11T09:26:40;16.05;;;8.07;;
19492;SDS011;9887;54.366;10.958;2022-11-11T09:29:27;15.07;;;8.02;;
19492;SDS011;9887;54.366;10.958;2022-11-11T09:32:15;22.10;;;8.10;;
19492;SDS011;9887;54.366;10.958;2022-11-11T09:35:01;17.33;;;7.47;;
19492;SDS011;9887;54.366;10.958;2022-11-11T09:37:51;19.02;;;8.15;;
19492;SDS011;9887;54.366;10.958;2022-11-11T09:40:43;14.80;;;8.23;;
19492;SDS011;9887;54.366;10.958;2022-11-11T09:43:38;16.00;;;8.90;;
19492;SDS011;9887;54.366;10.958;2022-11-11T09:46:33;14.32;;;7.85;;
19492;SDS011;9887;54.366;10.958;2022-11-11T09:49:25;21.15;;;8.05;;
19492;SDS011;9887;54.366;10.958;2022-11-11T09:52:22;14.95;;;8.10;;
19492;SDS011;9887;54.366;10.958;2022-11-11T09:55:14;14.98;;;7.85;;
19492;SDS011;9887;54.366;10.958;2022-11-11T09:58:05;22.23;;;8.85;;
19492;SDS011;9887;54.366;10.958;2022-11-11T10:00:59;22.85;;;8.85;;
19492;SDS011;9887;54.366;10.958;2022-11-11T10:03:50;21.52;;;8.07;;
19492;SDS011;9887;54.366;10.958;2022-11-11T10:06:45;16.58;;;8.93;;
19492;SDS011;9887;54.366;10.958;2022-11-11T10:09:34;16.38;;;8.88;;
19492;SDS011;9887;54.366;10.958;2022-11-11T10:12:30;17.10;;;7.85;;
19492;SDS011;9887;54.366;10.958;2022-11-11T10:15:28;17.13;;;8.68;;
19492;SDS011;9887;54.366;10.958;2022-11-11T10:18:24;17.65;;;7.95;;
19492;SDS011;9887;54.366;10.958;2022-11-11T10:21:24;22.60;;;8.55;;
19492;SDS011;9887;54.366;10.958;2022-11-11T10:24:38;22.40;;;8.65;;
19492;SDS011;9887;54.366;10.958;2022-11-11T10:27:34;20.55;;;8.57;;
19492;SDS011;9887;54.366;10.958;2022-11-11T10:30:22;19.60;;;8.55;;
19492;SDS011;9887;54.366;10.958;2022-11-11T10:33:16;24.05;;;9.57;;
19492;SDS011;9887;54.366;10.958;2022-11-11T10:36:08;18.23;;;8.88;;
19492;SDS011;9887;54.366;10.958;2022-11-11T10:39:02;22.52;;;8.98;;
19492;SDS011;9887;54.366;10.958;2022-11-11T10:41:52;20.35;;;9.02;;
19492;SDS011;9887;54.366;10.958;2022-11-11T10:44:38;23.10;;;8.50;;
19492;SDS011;9887;54.366;10.958;2022-11-11T10:47:28;24.45;;;8.93;;
19492;SDS011;9887;54.366;10.958;2022-11-11T10:50:24;24.63;;;8.45;;
19492;SDS011;9887;54.366;10.958;2022-11-11T10:53:16;25.83;;;9.75;;
19492;SDS011;9887;54.366;10.958;2022-11-11T10:56:08;19.83;;;8.65;;
19492;SDS011;9887;54.366;10.958;2022-11-11T10:59:06;18.85;;;8.52;;
19492;SDS011;9887;54.366;10.958;2022-11-11T11:02:00;20.45;;;8.95;;
19492;SDS011;9887;54.366;10.958;2022-11-11T11:04:53;23.40;;;9.02;;
19492;SDS011;9887;54.366;10.958;2022-11-11T11:07:44;23.58;;;9.48;;
19492;SDS011;9887;54.366;10.958;2022-11-11T11:10:34;19.55;;;8.05;;
19492;SDS011;9887;54.366;10.958;2022-11-11T11:13:25;19.27;;;9.20;;
19492;SDS011;9887;54.366;10.958;2022-11-11T11:16:19;17.75;;;8.50;;
19492;SDS011;9887;54.366;10.958;2022-11-11T11:19:15;18.58;;;8.90;;
19492;SDS011;9887;54.366;10.958;2022-11-11T11:22:03;18.10;;;8.85;;
19492;SDS011;9887;54.366;10.958;2022-11-11T11:24:49;19.50;;;9.20;;
19492;SDS011;9887;54.366;10.958;2022-11-11T11:27:36;25.02;;;9.00;;
19492;SDS011;9887;54.366;10.958;2022-11-11T11:30:23;18.50;;;9.02;;
19492;SDS011;9887;54.366;10.958;2022-11-11T11:33:12;26.45;;;9.05;;
19492;SDS011;9887;54.366;10.958;2022-11-11T11:36:01;20.77;;;9.38;;
19492;SDS011;9887;54.366;10.958;2022-11-11T11:39:01;22.10;;;9.43;;
19492;SDS011;9887;54.366;10.958;2022-11-11T11:41:47;23.17;;;10.05;;
19492;SDS011;9887;54.366;10.958;2022-11-11T11:44:37;20.63;;;9.25;;
19492;SDS011;9887;54.366;10.958;2022-11-11T11:50:55;24.52;;;8.80;;
19492;SDS011;9887;54.366;10.958;2022-11-11T11:53:54;19.42;;;8.43;;
19492;SDS011;9887;54.366;10.958;2022-11-11T11:56:49;20.98;;;9.02;;
19492;SDS011;9887;54.366;10.958;2022-11-11T11:59:39;21.15;;;8.82;;
19492;SDS011;9887;54.366;10.958;2022-11-11T12:02:36;20.98;;;8.95;;
19492;SDS011;9887;54.366;10.958;2022-11-11T12:05:36;19.20;;;8.40;;
19492;SDS011;9887;54.366;10.958;2022-11-11T12:08:32;24.13;;;8.75;;
19492;SDS011;9887;54.366;10.958;2022-11-11T12:11:28;24.05;;;8.73;;
19492;SDS011;9887;54.366;10.958;2022-11-11T12:14:28;28.83;;;9.32;;
19492;SDS011;9887;54.366;10.958;2022-11-11T12:17:29;22.33;;;8.80;;
19492;SDS011;9887;54.366;10.958;2022-11-11T12:20:22;18.05;;;9.15;;
19492;SDS011;9887;54.366;10.958;2022-11-11T12:23:18;20.73;;;8.48;;
19492;SDS011;9887;54.366;10.958;2022-11-11T12:26:34;20.27;;;9.13;;
19492;SDS011;9887;54.366;10.958;2022-11-11T12:29:28;23.75;;;9.60;;
19492;SDS011;9887;54.366;10.958;2022-11-11T12:32:30;18.00;;;9.15;;
19492;SDS011;9887;54.366;10.958;2022-11-11T12:35:38;23.80;;;8.95;;
19492;SDS011;9887;54.366;10.958;2022-11-11T12:38:37;21.73;;;9.82;;
19492;SDS011;9887;54.366;10.958;2022-11-11T12:41:39;22.88;;;9.23;;
19492;SDS011;9887;54.366;10.958;2022-11-11T12:44:34;20.02;;;8.95;;
19492;SDS011;9887;54.366;10.958;2022-11-11T12:47:32;23.73;;;9.75;;
19492;SDS011;9887;54.366;10.958;2022-11-11T12:50:25;20.17;;;9.82;;
19492;SDS011;9887;54.366;10.958;2022-11-11T12:53:23;20.25;;;8.63;;
19492;SDS011;9887;54.366;10.958;2022-11-11T12:56:19;24.02;;;9.35;;
19492;SDS011;9887;54.366;10.958;2022-11-11T12:59:16;18.73;;;9.43;;
19492;SDS011;9887;54.366;10.958;2022-11-11T13:02:19;15.35;;;9.18;;
19492;SDS011;9887;54.366;10.958;2022-11-11T13:05:24;19.23;;;9.00;;
19492;SDS011;9887;54.366;10.958;2022-11-11T13:08:23;24.83;;;9.30;;
19492;SDS011;9887;54.366;10.958;2022-11-11T13:11:27;17.55;;;9.07;;
19492;SDS011;9887;54.366;10.958;2022-11-11T13:14:32;17.85;;;9.32;;
19492;SDS011;9887;54.366;10.958;2022-11-11T13:17:29;21.17;;;9.18;;
19492;SDS011;9887;54.366;10.958;2022-11-11T13:20:19;19.70;;;9.25;;
19492;SDS011;9887;54.366;10.958;2022-11-11T13:23:15;21.35;;;9.95;;
19492;SDS011;9887;54.366;10.958;2022-11-11T13:26:03;17.77;;;9.48;;
19492;SDS011;9887;54.366;10.958;2022-11-11T13:29:11;15.45;;;9.55;;
19492;SDS011;9887;54.366;10.958;2022-11-11T13:32:14;18.92;;;9.15;;
19492;SDS011;9887;54.366;10.958;2022-11-11T13:35:08;20.15;;;9.98;;
19492;SDS011;9887;54.366;10.958;2022-11-11T13:38:04;19.70;;;8.80;;
19492;SDS011;9887;54.366;10.958;2022-11-11T13:40:52;20.10;;;9.88;;
19492;SDS011;9887;54.366;10.958;2022-11-11T13:43:41;22.35;;;10.35;;
19492;SDS011;9887;54.366;10.958;2022-11-11T13:46:32;18.73;;;8.95;;
19492;SDS011;9887;54.366;10.958;2022-11-11T13:49:23;19.15;;;8.55;;
19492;SDS011;9887;54.366;10.958;2022-11-11T13:52:18;21.55;;;9.30;;
19492;SDS011;9887;54.366;10.958;2022-11-11T13:55:20;17.80;;;9.10;;
19492;SDS011;9887;54.366;10.958;2022-11-11T13:58:18;20.80;;;9.20;;
19492;SDS011;9887;54.366;10.958;2022-11-11T14:01:08;19.40;;;8.10;;
19492;SDS011;9887;54.366;10.958;2022-11-11T14:03:57;18.25;;;8.48;;
19492;SDS011;9887;54.366;10.958;2022-11-11T14:06:52;20.20;;;9.27;;
19492;SDS011;9887;54.366;10.958;2022-11-11T14:09:56;17.55;;;8.57;;
19492;SDS011;9887;54.366;10.958;2022-11-11T14:12:45;17.55;;;8.13;;
19492;SDS011;9887;54.366;10.958;2022-11-11T14:15:33;19.77;;;8.30;;
19492;SDS011;9887;54.366;10.958;2022-11-11T14:18:32;16.92;;;8.15;;
19492;SDS011;9887;54.366;10.958;2022-11-11T14:21:41;17.15;;;7.55;;
19492;SDS011;9887;54.366;10.958;2022-11-11T14:24:38;18.48;;;8.15;;
19492;SDS011;9887;54.366;10.958;2022-11-11T14:27:27;17.35;;;8.88;;
19492;SDS011;9887;54.366;10.958;2022-11-11T14:30:36;16.50;;;7.78;;
19492;SDS011;9887;54.366;10.958;2022-11-11T14:33:31;15.50;;;8.10;;
19492;SDS011;9887;54.366;10.958;2022-11-11T14:36:27;17.90;;;7.55;;
19492;SDS011;9887;54.366;10.958;2022-11-11T14:39:26;14.60;;;7.72;;
19492;SDS011;9887;54.366;10.958;2022-11-11T14:42:45;14.75;;;7.85;;
19492;SDS011;9887;54.366;10.958;2022-11-11T14:51:53;16.98;;;7.72;;
19492;SDS011;9887;54.366;10.958;2022-11-11T14:54:49;18.85;;;7.95;;
19492;SDS011;9887;54.366;10.958;2022-11-11T14:57:40;12.65;;;7.03;;
19492;SDS011;9887;54.366;10.958;2022-11-11T15:00:42;15.25;;;6.90;;
19492;SDS011;9887;54.366;10.958;2022-11-11T15:03:33;17.23;;;7.43;;
19492;SDS011;9887;54.366;10.958;2022-11-11T15:06:23;14.18;;;7.63;;
19492;SDS011;9887;54.366;10.958;2022-11-11T15:09:23;15.75;;;7.88;;
19492;SDS011;9887;54.366;10.958;2022-11-11T15:12:28;16.10;;;7.38;;
19492;SDS011;9887;54.366;10.958;2022-11-11T15:15:23;18.60;;;7.85;;
19492;SDS011;9887;54.366;10.958;2022-11-11T15:18:17;16.42;;;7.13;;
19492;SDS011;9887;54.366;10.958;2022-11-11T15:21:19;18.13;;;7.30;;
19492;SDS011;9887;54.366;10.958;2022-11-11T15:24:16;18.88;;;7.25;;
19492;SDS011;9887;54.366;10.958;2022-11-11T15:27:14;15.60;;;7.45;;
19492;SDS011;9887;54.366;10.958;2022-11-11T15:30:10;14.13;;;6.72;;
19492;SDS011;9887;54.366;10.958;2022-11-11T15:33:00;16.35;;;7.32;;
19492;SDS011;9887;54.366;10.958;2022-11-11T15:35:55;15.80;;;6.60;;
19492;SDS011;9887;54.366;10.958;2022-11-11T15:38:54;12.85;;;7.22;;
19492;SDS011;9887;54.366;10.958;2022-11-11T15:41:41;12.20;;;6.28;;
19492;SDS011;9887;54.366;10.958;2022-11-11T15:44:31;15.25;;;7.80;;
19492;SDS011;9887;54.366;10.958;2022-11-11T15:47:19;17.25;;;6.60;;
19492;SDS011;9887;54.366;10.958;2022-11-11T15:50:15;14.35;;;7.70;;
19492;SDS011;9887;54.366;10.958;2022-11-11T15:53:03;13.43;;;7.18;;
19492;SDS011;9887;54.366;10.958;2022-11-11T15:55:52;13.68;;;6.47;;
19492;SDS011;9887;54.366;10.958;2022-11-11T15:58:41;13.50;;;6.93;;
19492;SDS011;9887;54.366;10.958;2022-11-11T16:01:27;18.45;;;6.95;;
19492;SDS011;9887;54.366;10.958;2022-11-11T16:04:15;13.27;;;7.10;;
19492;SDS011;9887;54.366;10.958;2022-11-11T16:07:26;15.20;;;6.95;;
19492;SDS011;9887;54.366;10.958;2022-11-11T16:10:18;13.45;;;7.00;;
19492;SDS011;9887;54.366;10.958;2022-11-11T16:13:12;11.18;;;6.60;;
19492;SDS011;9887;54.366;10.958;2022-11-11T16:16:02;13.30;;;6.95;;
19492;SDS011;9887;54.366;10.958;2022-11-11T16:18:53;14.73;;;6.95;;
19492;SDS011;9887;54.366;10.958;2022-11-11T16:21:42;13.38;;;7.18;;
19492;SDS011;9887;54.366;10.958;2022-11-11T16:24:32;13.18;;;6.63;;
19492;SDS011;9887;54.366;10.958;2022-11-11T16:27:23;18.52;;;6.88;;
19492;SDS011;9887;54.366;10.958;2022-11-11T16:30:16;16.25;;;6.55;;
19492;SDS011;9887;54.366;10.958;2022-11-11T16:33:17;12.25;;;6.43;;
19492;SDS011;9887;54.366;10.958;2022-11-11T16:36:16;17.80;;;7.22;;
19492;SDS011;9887;54.366;10.958;2022-11-11T16:39:12;16.17;;;7.28;;
19492;SDS011;9887;54.366;10.958;2022-11-11T16:42:00;15.10;;;7.35;;
19492;SDS011;9887;54.366;10.958;2022-11-11T16:44:53;14.30;;;6.70;;
19492;SDS011;9887;54.366;10.958;2022-11-11T16:47:43;11.10;;;6.75;;
19492;SDS011;9887;54.366;10.958;2022-11-11T16:50:31;14.10;;;6.97;;
19492;SDS011;9887;54.366;10.958;2022-11-11T16:53:23;15.60;;;7.07;;
19492;SDS011;9887;54.366;10.958;2022-11-11T16:56:22;16.80;;;7.68;;
19492;SDS011;9887;54.366;10.958;2022-11-11T16:59:12;19.52;;;7.28;;
19492;SDS011;9887;54.366;10.958;2022-11-11T17:02:10;13.65;;;7.72;;
19492;SDS011;9887;54.366;10.958;2022-11-11T17:05:00;16.38;;;7.18;;
19492;SDS011;9887;54.366;10.958;2022-11-11T17:07:47;15.80;;;7.93;;
19492;SDS011;9887;54.366;10.958;2022-11-11T17:10:37;19.27;;;8.60;;
19492;SDS011;9887;54.366;10.958;2022-11-11T17:13:24;11.77;;;7.72;;
19492;SDS011;9887;54.366;10.958;2022-11-11T17:16:12;13.55;;;7.45;;
19492;SDS011;9887;54.366;10.958;2022-11-11T17:19:00;13.23;;;6.82;;